sensor_id;sensor_type;location;lat;lon;timestamp;P1;durP1;ratioP1;P2;durP2;ratioP2
66886;SDS011;67239;51.680;5.976;2023-10-19T00:01:16;19.83;;;15.52;;
66886;SDS011;67239;51.680;5.976;2023-10-19T00:03:45;21.27;;;16.00;;
66886;SDS011;67239;51.680;5.976;2023-10-19T00:06:12;21.52;;;15.93;;
66886;SDS011;67239;51.680;5.976;2023-10-19T00:08:40;22.95;;;15.50;;
66886;SDS011;67239;51.680;5.976;2023-10-19T00:11:13;22.48;;;15.65;;
66886;SDS011;67239;51.680;5.976;2023-10-19T00:13:48;21.90;;;16.35;;
66886;SDS011;67239;51.680;5.976;2023-10-19T00:16:24;21.42;;;15.40;;
66886;SDS011;67239;51.680;5.976;2023-10-19T00:19:01;22.20;;;16.70;;
66886;SDS011;67239;51.680;5.976;2023-10-19T00:21:30;27.60;;;18.05;;
66886;SDS011;67239;51.680;5.976;2023-10-19T00:24:03;26.50;;;17.92;;
66886;SDS011;67239;51.680;5.976;2023-10-19T00:26:31;25.75;;;17.23;;
66886;SDS011;67239;51.680;5.976;2023-10-19T00:28:59;27.08;;;17.88;;
66886;SDS011;67239;51.680;5.976;2023-10-19T00:31:35;29.60;;;17.90;;
66886;SDS011;67239;51.680;5.976;2023-10-19T00:34:07;26.27;;;17.95;;
66886;SDS011;67239;51.680;5.976;2023-10-19T00:36:34;25.98;;;17.75;;
66886;SDS011;67239;51.680;5.976;2023-10-19T00:39:05;23.15;;;16.98;;
66886;SDS011;67239;51.680;5.976;2023-10-19T00:41:42;23.50;;;18.23;;
66886;SDS011;67239;51.680;5.976;2023-10-19T00:44:11;25.00;;;17.65;;
66886;SDS011;67239;51.680;5.976;2023-10-19T00:46:39;24.15;;;17.05;;
66886;SDS011;67239;51.680;5.976;2023-10-19T00:49:10;25.48;;;16.67;;
66886;SDS011;67239;51.680;5.976;2023-10-19T00:51:43;24.97;;;18.03;;
66886;SDS011;67239;51.680;5.976;2023-10-19T00:54:39;26.60;;;17.77;;
66886;SDS011;67239;51.680;5.976;2023-10-19T00:57:16;24.73;;;17.27;;
66886;SDS011;67239;51.680;5.976;2023-10-19T00:59:59;23.58;;;16.33;;
66886;SDS011;67239;51.680;5.976;2023-10-19T01:02:41;24.45;;;17.13;;
66886;SDS011;67239;51.680;5.976;2023-10-19T01:05:13;22.60;;;17.50;;
66886;SDS011;67239;51.680;5.976;2023-10-19T01:07:40;25.65;;;18.63;;
66886;SDS011;67239;51.680;5.976;2023-10-19T01:10:08;29.23;;;18.98;;
66886;SDS011;67239;51.680;5.976;2023-10-19T01:12:38;28.38;;;19.30;;
66886;SDS011;67239;51.680;5.976;2023-10-19T01:15:10;26.77;;;18.58;;
66886;SDS011;67239;51.680;5.976;2023-10-19T01:17:51;26.40;;;18.25;;
66886;SDS011;67239;51.680;5.976;2023-10-19T01:20:26;29.63;;;18.67;;
66886;SDS011;67239;51.680;5.976;2023-10-19T01:22:56;25.52;;;19.00;;
66886;SDS011;67239;51.680;5.976;2023-10-19T01:28:08;25.00;;;17.77;;
66886;SDS011;67239;51.680;5.976;2023-10-19T01:30:37;25.13;;;18.42;;
66886;SDS011;67239;51.680;5.976;2023-10-19T01:33:05;26.30;;;17.88;;
66886;SDS011;67239;51.680;5.976;2023-10-19T01:35:40;25.83;;;18.02;;
66886;SDS011;67239;51.680;5.976;2023-10-19T01:38:27;27.98;;;18.30;;
66886;SDS011;67239;51.680;5.976;2023-10-19T01:41:01;29.98;;;19.23;;
66886;SDS011;67239;51.680;5.976;2023-10-19T01:43:51;24.13;;;17.10;;
66886;SDS011;67239;51.680;5.976;2023-10-19T01:46:28;23.35;;;16.48;;
66886;SDS011;67239;51.680;5.976;2023-10-19T01:49:01;24.02;;;17.55;;
66886;SDS011;67239;51.680;5.976;2023-10-19T01:51:31;25.63;;;17.17;;
66886;SDS011;67239;51.680;5.976;2023-10-19T01:54:06;22.75;;;16.95;;
66886;SDS011;67239;51.680;5.976;2023-10-19T01:56:34;22.35;;;16.10;;
66886;SDS011;67239;51.680;5.976;2023-10-19T01:59:03;24.17;;;15.25;;
66886;SDS011;67239;51.680;5.976;2023-10-19T02:01:31;23.27;;;16.42;;
66886;SDS011;67239;51.680;5.976;2023-10-19T02:04:02;25.00;;;16.80;;
66886;SDS011;67239;51.680;5.976;2023-10-19T02:06:33;23.23;;;16.23;;
66886;SDS011;67239;51.680;5.976;2023-10-19T02:09:10;21.08;;;16.42;;
66886;SDS011;67239;51.680;5.976;2023-10-19T02:11:58;26.77;;;17.83;;
66886;SDS011;67239;51.680;5.976;2023-10-19T02:14:26;23.67;;;17.08;;
66886;SDS011;67239;51.680;5.976;2023-10-19T02:16:59;22.83;;;16.52;;
66886;SDS011;67239;51.680;5.976;2023-10-19T02:19:28;24.02;;;16.55;;
66886;SDS011;67239;51.680;5.976;2023-10-19T02:21:57;25.08;;;15.18;;
66886;SDS011;67239;51.680;5.976;2023-10-19T02:24:30;22.80;;;15.95;;
66886;SDS011;67239;51.680;5.976;2023-10-19T02:26:58;21.45;;;16.05;;
66886;SDS011;67239;51.680;5.976;2023-10-19T02:29:27;25.23;;;16.20;;
66886;SDS011;67239;51.680;5.976;2023-10-19T02:31:55;20.10;;;15.35;;
66886;SDS011;67239;51.680;5.976;2023-10-19T02:34:23;23.70;;;15.40;;
66886;SDS011;67239;51.680;5.976;2023-10-19T02:36:51;21.63;;;15.75;;
66886;SDS011;67239;51.680;5.976;2023-10-19T02:39:18;22.45;;;14.52;;
66886;SDS011;67239;51.680;5.976;2023-10-19T02:41:46;21.52;;;14.63;;
66886;SDS011;67239;51.680;5.976;2023-10-19T02:46:52;19.20;;;13.85;;
66886;SDS011;67239;51.680;5.976;2023-10-19T02:49:33;19.48;;;13.50;;
66886;SDS011;67239;51.680;5.976;2023-10-19T02:52:05;20.23;;;13.95;;
66886;SDS011;67239;51.680;5.976;2023-10-19T02:54:32;22.52;;;14.32;;
66886;SDS011;67239;51.680;5.976;2023-10-19T02:57:02;19.17;;;13.82;;
66886;SDS011;67239;51.680;5.976;2023-10-19T02:59:34;17.48;;;12.90;;
66886;SDS011;67239;51.680;5.976;2023-10-19T03:02:02;20.55;;;12.63;;
66886;SDS011;67239;51.680;5.976;2023-10-19T03:04:40;21.83;;;13.88;;
66886;SDS011;67239;51.680;5.976;2023-10-19T03:07:08;18.83;;;12.27;;
66886;SDS011;67239;51.680;5.976;2023-10-19T03:09:39;18.92;;;12.70;;
66886;SDS011;67239;51.680;5.976;2023-10-19T03:12:15;22.27;;;13.32;;
66886;SDS011;67239;51.680;5.976;2023-10-19T03:14:43;18.17;;;12.32;;
66886;SDS011;67239;51.680;5.976;2023-10-19T03:17:15;17.63;;;12.48;;
66886;SDS011;67239;51.680;5.976;2023-10-19T03:19:43;19.60;;;12.98;;
66886;SDS011;67239;51.680;5.976;2023-10-19T03:22:11;22.02;;;13.25;;
66886;SDS011;67239;51.680;5.976;2023-10-19T03:24:38;17.95;;;12.60;;
66886;SDS011;67239;51.680;5.976;2023-10-19T03:27:11;18.17;;;13.10;;
66886;SDS011;67239;51.680;5.976;2023-10-19T03:29:44;22.63;;;12.55;;
66886;SDS011;67239;51.680;5.976;2023-10-19T03:32:26;16.63;;;12.15;;
66886;SDS011;67239;51.680;5.976;2023-10-19T03:34:54;19.58;;;12.20;;
66886;SDS011;67239;51.680;5.976;2023-10-19T03:37:24;18.65;;;12.25;;
66886;SDS011;67239;51.680;5.976;2023-10-19T03:39:58;21.85;;;11.57;;
66886;SDS011;67239;51.680;5.976;2023-10-19T03:42:25;20.48;;;12.23;;
66886;SDS011;67239;51.680;5.976;2023-10-19T03:44:54;15.00;;;10.93;;
66886;SDS011;67239;51.680;5.976;2023-10-19T03:47:22;17.05;;;11.50;;
66886;SDS011;67239;51.680;5.976;2023-10-19T03:49:53;15.15;;;11.18;;
66886;SDS011;67239;51.680;5.976;2023-10-19T03:52:20;13.32;;;10.38;;
66886;SDS011;67239;51.680;5.976;2023-10-19T03:54:48;15.13;;;10.95;;
66886;SDS011;67239;51.680;5.976;2023-10-19T03:57:16;15.93;;;10.52;;
66886;SDS011;67239;51.680;5.976;2023-10-19T03:59:56;13.93;;;10.55;;
66886;SDS011;67239;51.680;5.976;2023-10-19T04:02:24;13.63;;;9.60;;
66886;SDS011;67239;51.680;5.976;2023-10-19T04:04:54;13.55;;;9.95;;
66886;SDS011;67239;51.680;5.976;2023-10-19T04:07:23;14.05;;;10.63;;
66886;SDS011;67239;51.680;5.976;2023-10-19T04:09:53;14.80;;;9.32;;
66886;SDS011;67239;51.680;5.976;2023-10-19T04:12:34;14.93;;;10.15;;
66886;SDS011;67239;51.680;5.976;2023-10-19T04:15:09;14.95;;;9.75;;
66886;SDS011;67239;51.680;5.976;2023-10-19T04:17:40;14.02;;;9.48;;
66886;SDS011;67239;51.680;5.976;2023-10-19T04:20:09;12.52;;;9.95;;
66886;SDS011;67239;51.680;5.976;2023-10-19T04:22:46;16.08;;;9.88;;
66886;SDS011;67239;51.680;5.976;2023-10-19T04:25:17;11.45;;;9.20;;
66886;SDS011;67239;51.680;5.976;2023-10-19T04:27:46;11.27;;;8.63;;
66886;SDS011;67239;51.680;5.976;2023-10-19T04:30:16;10.85;;;8.43;;
66886;SDS011;67239;51.680;5.976;2023-10-19T04:32:43;13.07;;;8.15;;
66886;SDS011;67239;51.680;5.976;2023-10-19T04:35:12;12.25;;;7.78;;
66886;SDS011;67239;51.680;5.976;2023-10-19T04:37:44;12.32;;;7.30;;
66886;SDS011;67239;51.680;5.976;2023-10-19T04:40:11;11.45;;;7.03;;
66886;SDS011;67239;51.680;5.976;2023-10-19T04:42:38;10.18;;;6.30;;
66886;SDS011;67239;51.680;5.976;2023-10-19T04:45:06;11.75;;;6.63;;
66886;SDS011;67239;51.680;5.976;2023-10-19T04:47:34;8.45;;;6.13;;
66886;SDS011;67239;51.680;5.976;2023-10-19T04:50:03;8.75;;;6.15;;
66886;SDS011;67239;51.680;5.976;2023-10-19T04:52:32;10.50;;;5.85;;
66886;SDS011;67239;51.680;5.976;2023-10-19T04:55:00;6.95;;;5.57;;
66886;SDS011;67239;51.680;5.976;2023-10-19T04:57:28;12.15;;;5.45;;
66886;SDS011;67239;51.680;5.976;2023-10-19T04:59:55;8.20;;;5.25;;
66886;SDS011;67239;51.680;5.976;2023-10-19T05:02:23;12.80;;;5.65;;
66886;SDS011;67239;51.680;5.976;2023-10-19T05:04:51;10.02;;;5.30;;
66886;SDS011;67239;51.680;5.976;2023-10-19T05:07:18;7.47;;;5.00;;
66886;SDS011;67239;51.680;5.976;2023-10-19T05:09:46;7.35;;;4.97;;
66886;SDS011;67239;51.680;5.976;2023-10-19T05:12:14;7.68;;;4.82;;
66886;SDS011;67239;51.680;5.976;2023-10-19T05:14:42;9.07;;;4.95;;
66886;SDS011;67239;51.680;5.976;2023-10-19T05:17:10;6.32;;;4.07;;
66886;SDS011;67239;51.680;5.976;2023-10-19T05:19:38;11.07;;;4.90;;
66886;SDS011;67239;51.680;5.976;2023-10-19T05:22:07;8.18;;;4.03;;
66886;SDS011;67239;51.680;5.976;2023-10-19T05:24:35;7.00;;;4.30;;
66886;SDS011;67239;51.680;5.976;2023-10-19T05:27:03;6.68;;;4.32;;
66886;SDS011;67239;51.680;5.976;2023-10-19T05:29:31;8.30;;;4.28;;
66886;SDS011;67239;51.680;5.976;2023-10-19T05:32:02;7.20;;;4.05;;
66886;SDS011;67239;51.680;5.976;2023-10-19T05:34:30;12.57;;;4.22;;
66886;SDS011;67239;51.680;5.976;2023-10-19T05:36:59;6.25;;;3.00;;
66886;SDS011;67239;51.680;5.976;2023-10-19T05:39:29;8.73;;;2.92;;
66886;SDS011;67239;51.680;5.976;2023-10-19T05:41:58;8.30;;;2.90;;
66886;SDS011;67239;51.680;5.976;2023-10-19T05:44:31;5.75;;;2.45;;
66886;SDS011;67239;51.680;5.976;2023-10-19T05:46:59;6.93;;;2.90;;
66886;SDS011;67239;51.680;5.976;2023-10-19T05:49:27;7.40;;;2.60;;
66886;SDS011;67239;51.680;5.976;2023-10-19T05:51:57;11.68;;;2.90;;
66886;SDS011;67239;51.680;5.976;2023-10-19T05:54:25;7.75;;;2.72;;
66886;SDS011;67239;51.680;5.976;2023-10-19T05:56:53;8.23;;;2.70;;
66886;SDS011;67239;51.680;5.976;2023-10-19T05:59:20;7.68;;;2.30;;
66886;SDS011;67239;51.680;5.976;2023-10-19T06:01:50;10.52;;;2.45;;
66886;SDS011;67239;51.680;5.976;2023-10-19T06:04:18;9.55;;;2.38;;
66886;SDS011;67239;51.680;5.976;2023-10-19T06:06:47;6.47;;;2.75;;
66886;SDS011;67239;51.680;5.976;2023-10-19T06:09:15;8.82;;;2.20;;
66886;SDS011;67239;51.680;5.976;2023-10-19T06:11:44;7.93;;;2.58;;
66886;SDS011;67239;51.680;5.976;2023-10-19T06:14:12;7.25;;;2.42;;
66886;SDS011;67239;51.680;5.976;2023-10-19T06:16:40;8.32;;;2.22;;
66886;SDS011;67239;51.680;5.976;2023-10-19T06:19:07;8.27;;;2.22;;
66886;SDS011;67239;51.680;5.976;2023-10-19T06:21:36;8.38;;;2.60;;
66886;SDS011;67239;51.680;5.976;2023-10-19T06:24:03;9.82;;;2.00;;
66886;SDS011;67239;51.680;5.976;2023-10-19T06:26:30;9.95;;;2.17;;
66886;SDS011;67239;51.680;5.976;2023-10-19T06:28:57;11.60;;;2.50;;
66886;SDS011;67239;51.680;5.976;2023-10-19T06:31:29;6.75;;;2.25;;
66886;SDS011;67239;51.680;5.976;2023-10-19T06:33:57;9.57;;;2.45;;
66886;SDS011;67239;51.680;5.976;2023-10-19T06:36:25;10.00;;;2.45;;
66886;SDS011;67239;51.680;5.976;2023-10-19T06:38:52;10.88;;;2.30;;
66886;SDS011;67239;51.680;5.976;2023-10-19T06:41:21;9.20;;;2.17;;
66886;SDS011;67239;51.680;5.976;2023-10-19T06:43:49;13.05;;;2.55;;
66886;SDS011;67239;51.680;5.976;2023-10-19T06:46:17;9.32;;;2.30;;
66886;SDS011;67239;51.680;5.976;2023-10-19T06:48:44;7.20;;;2.00;;
66886;SDS011;67239;51.680;5.976;2023-10-19T06:51:12;8.40;;;2.47;;
66886;SDS011;67239;51.680;5.976;2023-10-19T06:53:39;8.10;;;2.50;;
66886;SDS011;67239;51.680;5.976;2023-10-19T06:56:06;9.95;;;2.80;;
66886;SDS011;67239;51.680;5.976;2023-10-19T06:58:33;10.32;;;2.40;;
66886;SDS011;67239;51.680;5.976;2023-10-19T07:01:01;9.77;;;2.40;;
66886;SDS011;67239;51.680;5.976;2023-10-19T07:03:35;13.13;;;2.50;;
66886;SDS011;67239;51.680;5.976;2023-10-19T07:06:02;10.30;;;2.30;;
66886;SDS011;67239;51.680;5.976;2023-10-19T07:08:36;9.30;;;2.90;;
66886;SDS011;67239;51.680;5.976;2023-10-19T07:11:03;9.20;;;2.92;;
66886;SDS011;67239;51.680;5.976;2023-10-19T07:13:31;8.32;;;3.58;;
66886;SDS011;67239;51.680;5.976;2023-10-19T07:16:00;12.48;;;4.13;;
66886;SDS011;67239;51.680;5.976;2023-10-19T07:18:30;8.80;;;4.30;;
66886;SDS011;67239;51.680;5.976;2023-10-19T07:20:57;13.20;;;6.93;;
66886;SDS011;67239;51.680;5.976;2023-10-19T07:23:36;10.82;;;7.97;;
66886;SDS011;67239;51.680;5.976;2023-10-19T07:26:07;12.77;;;6.28;;
66886;SDS011;67239;51.680;5.976;2023-10-19T07:28:35;14.25;;;6.70;;
66886;SDS011;67239;51.680;5.976;2023-10-19T07:31:05;25.25;;;14.63;;
66886;SDS011;67239;51.680;5.976;2023-10-19T07:33:39;16.42;;;8.65;;
66886;SDS011;67239;51.680;5.976;2023-10-19T07:36:13;24.53;;;13.13;;
66886;SDS011;67239;51.680;5.976;2023-10-19T07:38:45;19.90;;;10.05;;
66886;SDS011;67239;51.680;5.976;2023-10-19T07:41:14;20.45;;;10.27;;
66886;SDS011;67239;51.680;5.976;2023-10-19T07:43:44;18.02;;;9.25;;
66886;SDS011;67239;51.680;5.976;2023-10-19T07:46:12;16.52;;;6.28;;
66886;SDS011;67239;51.680;5.976;2023-10-19T07:48:40;11.35;;;4.53;;
66886;SDS011;67239;51.680;5.976;2023-10-19T07:51:08;11.82;;;5.05;;
66886;SDS011;67239;51.680;5.976;2023-10-19T07:53:38;12.13;;;4.10;;
66886;SDS011;67239;51.680;5.976;2023-10-19T07:56:05;8.63;;;4.20;;
66886;SDS011;67239;51.680;5.976;2023-10-19T07:58:34;10.82;;;3.67;;
66886;SDS011;67239;51.680;5.976;2023-10-19T08:01:01;12.20;;;4.20;;
66886;SDS011;67239;51.680;5.976;2023-10-19T08:03:29;8.38;;;3.50;;
66886;SDS011;67239;51.680;5.976;2023-10-19T08:05:56;8.98;;;3.40;;
66886;SDS011;67239;51.680;5.976;2023-10-19T08:08:24;7.60;;;3.13;;
66886;SDS011;67239;51.680;5.976;2023-10-19T08:10:51;18.40;;;3.40;;
66886;SDS011;67239;51.680;5.976;2023-10-19T08:13:21;11.40;;;3.85;;
66886;SDS011;67239;51.680;5.976;2023-10-19T08:15:53;6.50;;;3.13;;
66886;SDS011;67239;51.680;5.976;2023-10-19T08:18:20;8.20;;;3.10;;
66886;SDS011;67239;51.680;5.976;2023-10-19T08:20:47;8.82;;;2.97;;
66886;SDS011;67239;51.680;5.976;2023-10-19T08:23:15;9.05;;;3.05;;
66886;SDS011;67239;51.680;5.976;2023-10-19T08:25:50;9.90;;;2.50;;
66886;SDS011;67239;51.680;5.976;2023-10-19T08:28:23;8.48;;;2.58;;
66886;SDS011;67239;51.680;5.976;2023-10-19T08:30:51;6.90;;;2.60;;
66886;SDS011;67239;51.680;5.976;2023-10-19T08:33:27;8.48;;;2.17;;
66886;SDS011;67239;51.680;5.976;2023-10-19T08:35:56;5.72;;;2.17;;
66886;SDS011;67239;51.680;5.976;2023-10-19T08:38:23;8.82;;;2.70;;
66886;SDS011;67239;51.680;5.976;2023-10-19T08:40:50;9.30;;;2.50;;
66886;SDS011;67239;51.680;5.976;2023-10-19T08:43:18;11.05;;;2.45;;
66886;SDS011;67239;51.680;5.976;2023-10-19T08:45:46;10.63;;;2.97;;
66886;SDS011;67239;51.680;5.976;2023-10-19T08:48:13;10.20;;;2.53;;
66886;SDS011;67239;51.680;5.976;2023-10-19T08:50:41;7.47;;;2.53;;
66886;SDS011;67239;51.680;5.976;2023-10-19T08:53:08;8.30;;;3.15;;
66886;SDS011;67239;51.680;5.976;2023-10-19T08:55:40;15.35;;;2.95;;
66886;SDS011;67239;51.680;5.976;2023-10-19T08:58:16;10.27;;;2.90;;
66886;SDS011;67239;51.680;5.976;2023-10-19T09:00:49;8.43;;;3.10;;
66886;SDS011;67239;51.680;5.976;2023-10-19T09:03:25;12.90;;;3.15;;
66886;SDS011;67239;51.680;5.976;2023-10-19T09:05:53;12.75;;;3.05;;
66886;SDS011;67239;51.680;5.976;2023-10-19T09:08:21;10.05;;;2.90;;
66886;SDS011;67239;51.680;5.976;2023-10-19T09:10:50;9.20;;;3.10;;
66886;SDS011;67239;51.680;5.976;2023-10-19T09:13:22;11.40;;;3.13;;
66886;SDS011;67239;51.680;5.976;2023-10-19T09:15:52;11.75;;;3.55;;
66886;SDS011;67239;51.680;5.976;2023-10-19T09:18:24;7.22;;;2.95;;
66886;SDS011;67239;51.680;5.976;2023-10-19T09:20:58;9.27;;;2.72;;
66886;SDS011;67239;51.680;5.976;2023-10-19T09:23:35;10.05;;;2.70;;
66886;SDS011;67239;51.680;5.976;2023-10-19T09:26:03;12.90;;;2.85;;
66886;SDS011;67239;51.680;5.976;2023-10-19T09:28:37;7.90;;;2.75;;
66886;SDS011;67239;51.680;5.976;2023-10-19T09:31:05;8.07;;;2.28;;
66886;SDS011;67239;51.680;5.976;2023-10-19T09:33:43;12.47;;;2.30;;
66886;SDS011;67239;51.680;5.976;2023-10-19T09:36:15;10.15;;;2.47;;
66886;SDS011;67239;51.680;5.976;2023-10-19T09:38:49;8.70;;;2.80;;
66886;SDS011;67239;51.680;5.976;2023-10-19T09:41:21;5.35;;;2.05;;
66886;SDS011;67239;51.680;5.976;2023-10-19T09:43:49;10.18;;;2.30;;
66886;SDS011;67239;51.680;5.976;2023-10-19T09:46:21;7.90;;;2.60;;
66886;SDS011;67239;51.680;5.976;2023-10-19T09:48:53;9.52;;;2.40;;
66886;SDS011;67239;51.680;5.976;2023-10-19T09:51:20;8.93;;;2.58;;
66886;SDS011;67239;51.680;5.976;2023-10-19T09:53:53;7.25;;;2.33;;
66886;SDS011;67239;51.680;5.976;2023-10-19T09:56:46;10.35;;;2.17;;
66886;SDS011;67239;51.680;5.976;2023-10-19T10:04:41;5.68;;;2.08;;
66886;SDS011;67239;51.680;5.976;2023-10-19T10:07:13;9.10;;;2.15;;
66886;SDS011;67239;51.680;5.976;2023-10-19T10:12:25;10.60;;;2.05;;
66886;SDS011;67239;51.680;5.976;2023-10-19T10:15:02;10.95;;;2.47;;
66886;SDS011;67239;51.680;5.976;2023-10-19T10:17:36;9.63;;;2.38;;
66886;SDS011;67239;51.680;5.976;2023-10-19T10:22:40;8.47;;;2.20;;
66886;SDS011;67239;51.680;5.976;2023-10-19T10:25:27;13.20;;;2.22;;
66886;SDS011;67239;51.680;5.976;2023-10-19T10:30:23;9.07;;;2.10;;
66886;SDS011;67239;51.680;5.976;2023-10-19T10:32:51;11.13;;;2.17;;
66886;SDS011;67239;51.680;5.976;2023-10-19T10:38:10;7.28;;;2.00;;
66886;SDS011;67239;51.680;5.976;2023-10-19T10:40:44;6.32;;;1.73;;
66886;SDS011;67239;51.680;5.976;2023-10-19T10:43:18;8.07;;;1.98;;
66886;SDS011;67239;51.680;5.976;2023-10-19T10:45:46;7.05;;;1.77;;
66886;SDS011;67239;51.680;5.976;2023-10-19T10:48:14;7.80;;;1.83;;
66886;SDS011;67239;51.680;5.976;2023-10-19T10:50:44;7.40;;;2.00;;
66886;SDS011;67239;51.680;5.976;2023-10-19T10:53:16;11.38;;;2.88;;
66886;SDS011;67239;51.680;5.976;2023-10-19T10:55:43;7.90;;;1.85;;
66886;SDS011;67239;51.680;5.976;2023-10-19T10:58:17;10.18;;;1.85;;
66886;SDS011;67239;51.680;5.976;2023-10-19T11:00:45;9.25;;;1.98;;
66886;SDS011;67239;51.680;5.976;2023-10-19T11:03:18;6.63;;;1.47;;
66886;SDS011;67239;51.680;5.976;2023-10-19T11:05:45;6.90;;;1.30;;
66886;SDS011;67239;51.680;5.976;2023-10-19T11:08:14;7.70;;;1.80;;
66886;SDS011;67239;51.680;5.976;2023-10-19T11:10:48;8.18;;;1.60;;
66886;SDS011;67239;51.680;5.976;2023-10-19T11:13:16;6.90;;;1.70;;
66886;SDS011;67239;51.680;5.976;2023-10-19T11:15:49;8.65;;;1.40;;
66886;SDS011;67239;51.680;5.976;2023-10-19T11:18:29;6.10;;;1.60;;
66886;SDS011;67239;51.680;5.976;2023-10-19T11:21:08;9.15;;;1.60;;
66886;SDS011;67239;51.680;5.976;2023-10-19T11:28:42;11.05;;;1.63;;
66886;SDS011;67239;51.680;5.976;2023-10-19T11:31:15;8.93;;;1.70;;
66886;SDS011;67239;51.680;5.976;2023-10-19T11:33:49;10.77;;;1.98;;
66886;SDS011;67239;51.680;5.976;2023-10-19T11:36:22;16.43;;;1.90;;
66886;SDS011;67239;51.680;5.976;2023-10-19T11:38:51;12.55;;;2.17;;
66886;SDS011;67239;51.680;5.976;2023-10-19T11:41:20;17.88;;;2.80;;
66886;SDS011;67239;51.680;5.976;2023-10-19T11:43:48;14.50;;;2.00;;
66886;SDS011;67239;51.680;5.976;2023-10-19T11:46:16;9.57;;;1.90;;
66886;SDS011;67239;51.680;5.976;2023-10-19T11:48:45;8.90;;;1.75;;
66886;SDS011;67239;51.680;5.976;2023-10-19T11:51:13;9.52;;;1.70;;
66886;SDS011;67239;51.680;5.976;2023-10-19T11:53:42;12.15;;;1.92;;
66886;SDS011;67239;51.680;5.976;2023-10-19T11:56:11;10.65;;;2.00;;
66886;SDS011;67239;51.680;5.976;2023-10-19T11:58:40;10.70;;;2.08;;
66886;SDS011;67239;51.680;5.976;2023-10-19T12:01:09;8.80;;;1.75;;
66886;SDS011;67239;51.680;5.976;2023-10-19T12:03:43;12.60;;;1.95;;
66886;SDS011;67239;51.680;5.976;2023-10-19T12:06:13;9.82;;;1.80;;
66886;SDS011;67239;51.680;5.976;2023-10-19T12:08:50;10.13;;;1.88;;
66886;SDS011;67239;51.680;5.976;2023-10-19T12:11:17;9.32;;;1.98;;
66886;SDS011;67239;51.680;5.976;2023-10-19T12:13:46;13.65;;;4.30;;
66886;SDS011;67239;51.680;5.976;2023-10-19T12:16:14;16.20;;;2.92;;
66886;SDS011;67239;51.680;5.976;2023-10-19T12:18:43;14.93;;;2.95;;
66886;SDS011;67239;51.680;5.976;2023-10-19T12:21:15;10.25;;;1.80;;
66886;SDS011;67239;51.680;5.976;2023-10-19T12:23:45;8.52;;;1.90;;
66886;SDS011;67239;51.680;5.976;2023-10-19T12:26:21;9.55;;;1.85;;
66886;SDS011;67239;51.680;5.976;2023-10-19T12:28:48;10.60;;;1.88;;
66886;SDS011;67239;51.680;5.976;2023-10-19T12:31:16;9.73;;;1.85;;
66886;SDS011;67239;51.680;5.976;2023-10-19T12:33:46;7.38;;;1.73;;
66886;SDS011;67239;51.680;5.976;2023-10-19T12:36:13;14.98;;;2.97;;
66886;SDS011;67239;51.680;5.976;2023-10-19T12:38:55;19.63;;;3.70;;
66886;SDS011;67239;51.680;5.976;2023-10-19T12:41:22;9.73;;;3.50;;
66886;SDS011;67239;51.680;5.976;2023-10-19T12:43:54;8.38;;;2.40;;
66886;SDS011;67239;51.680;5.976;2023-10-19T12:46:35;8.95;;;1.73;;
66886;SDS011;67239;51.680;5.976;2023-10-19T12:49:05;9.55;;;1.88;;
66886;SDS011;67239;51.680;5.976;2023-10-19T12:51:40;8.80;;;1.90;;
66886;SDS011;67239;51.680;5.976;2023-10-19T12:54:09;7.68;;;1.95;;
66886;SDS011;67239;51.680;5.976;2023-10-19T12:56:37;7.18;;;1.75;;
66886;SDS011;67239;51.680;5.976;2023-10-19T12:59:05;9.00;;;2.00;;
66886;SDS011;67239;51.680;5.976;2023-10-19T13:01:34;10.80;;;2.40;;
66886;SDS011;67239;51.680;5.976;2023-10-19T13:04:02;11.82;;;2.00;;
66886;SDS011;67239;51.680;5.976;2023-10-19T13:06:41;7.82;;;1.65;;
66886;SDS011;67239;51.680;5.976;2023-10-19T13:09:08;8.77;;;1.70;;
66886;SDS011;67239;51.680;5.976;2023-10-19T13:11:36;8.95;;;2.15;;
66886;SDS011;67239;51.680;5.976;2023-10-19T13:14:05;8.27;;;1.83;;
66886;SDS011;67239;51.680;5.976;2023-10-19T13:16:33;9.45;;;2.00;;
66886;SDS011;67239;51.680;5.976;2023-10-19T13:19:02;8.07;;;1.77;;
66886;SDS011;67239;51.680;5.976;2023-10-19T13:21:39;8.68;;;1.90;;
66886;SDS011;67239;51.680;5.976;2023-10-19T13:24:08;9.10;;;2.20;;
66886;SDS011;67239;51.680;5.976;2023-10-19T13:26:35;10.30;;;1.90;;
66886;SDS011;67239;51.680;5.976;2023-10-19T13:29:05;6.45;;;1.75;;
66886;SDS011;67239;51.680;5.976;2023-10-19T13:31:32;11.45;;;2.10;;
66886;SDS011;67239;51.680;5.976;2023-10-19T13:33:59;12.50;;;1.88;;
66886;SDS011;67239;51.680;5.976;2023-10-19T13:36:26;9.57;;;1.85;;
66886;SDS011;67239;51.680;5.976;2023-10-19T13:38:53;8.48;;;1.50;;
66886;SDS011;67239;51.680;5.976;2023-10-19T13:41:21;8.50;;;2.25;;
66886;SDS011;67239;51.680;5.976;2023-10-19T13:43:48;6.75;;;1.60;;
66886;SDS011;67239;51.680;5.976;2023-10-19T13:46:15;8.02;;;1.60;;
66886;SDS011;67239;51.680;5.976;2023-10-19T13:48:42;7.72;;;1.70;;
66886;SDS011;67239;51.680;5.976;2023-10-19T13:51:10;9.23;;;2.08;;
66886;SDS011;67239;51.680;5.976;2023-10-19T13:53:41;10.43;;;1.95;;
66886;SDS011;67239;51.680;5.976;2023-10-19T13:56:12;7.32;;;1.80;;
66886;SDS011;67239;51.680;5.976;2023-10-19T13:58:41;6.95;;;2.17;;
66886;SDS011;67239;51.680;5.976;2023-10-19T14:01:09;9.65;;;1.92;;
66886;SDS011;67239;51.680;5.976;2023-10-19T14:03:39;7.60;;;1.75;;
66886;SDS011;67239;51.680;5.976;2023-10-19T14:06:13;7.90;;;1.70;;
66886;SDS011;67239;51.680;5.976;2023-10-19T14:08:41;6.60;;;1.83;;
66886;SDS011;67239;51.680;5.976;2023-10-19T14:11:08;12.52;;;2.17;;
66886;SDS011;67239;51.680;5.976;2023-10-19T14:13:36;8.52;;;1.77;;
66886;SDS011;67239;51.680;5.976;2023-10-19T14:16:07;8.43;;;2.10;;
66886;SDS011;67239;51.680;5.976;2023-10-19T14:18:38;9.02;;;2.53;;
66886;SDS011;67239;51.680;5.976;2023-10-19T14:21:16;11.98;;;2.30;;
66886;SDS011;67239;51.680;5.976;2023-10-19T14:23:45;11.15;;;2.42;;
66886;SDS011;67239;51.680;5.976;2023-10-19T14:26:14;11.55;;;2.08;;
66886;SDS011;67239;51.680;5.976;2023-10-19T14:28:42;11.45;;;2.67;;
66886;SDS011;67239;51.680;5.976;2023-10-19T14:31:09;7.70;;;2.22;;
66886;SDS011;67239;51.680;5.976;2023-10-19T14:33:38;8.55;;;2.33;;
66886;SDS011;67239;51.680;5.976;2023-10-19T14:36:06;8.35;;;2.45;;
66886;SDS011;67239;51.680;5.976;2023-10-19T14:38:36;8.38;;;2.33;;
66886;SDS011;67239;51.680;5.976;2023-10-19T14:41:05;11.75;;;2.40;;
66886;SDS011;67239;51.680;5.976;2023-10-19T14:43:32;8.27;;;2.72;;
66886;SDS011;67239;51.680;5.976;2023-10-19T14:46:01;7.80;;;2.65;;
66886;SDS011;67239;51.680;5.976;2023-10-19T14:48:28;10.85;;;2.63;;
66886;SDS011;67239;51.680;5.976;2023-10-19T14:50:56;10.77;;;2.83;;
66886;SDS011;67239;51.680;5.976;2023-10-19T14:53:24;11.90;;;2.92;;
66886;SDS011;67239;51.680;5.976;2023-10-19T14:55:54;7.20;;;2.83;;
66886;SDS011;67239;51.680;5.976;2023-10-19T14:58:23;10.60;;;2.83;;
66886;SDS011;67239;51.680;5.976;2023-10-19T15:00:52;12.15;;;3.30;;
66886;SDS011;67239;51.680;5.976;2023-10-19T15:03:25;13.05;;;3.30;;
66886;SDS011;67239;51.680;5.976;2023-10-19T15:06:25;9.23;;;2.97;;
66886;SDS011;67239;51.680;5.976;2023-10-19T15:08:52;11.00;;;3.75;;
66886;SDS011;67239;51.680;5.976;2023-10-19T15:11:20;11.48;;;3.72;;
66886;SDS011;67239;51.680;5.976;2023-10-19T15:13:48;11.82;;;3.53;;
66886;SDS011;67239;51.680;5.976;2023-10-19T15:16:17;10.15;;;3.50;;
66886;SDS011;67239;51.680;5.976;2023-10-19T15:18:44;17.63;;;3.75;;
66886;SDS011;67239;51.680;5.976;2023-10-19T15:21:11;12.43;;;3.88;;